Time;durP1;ratioP1;P1;durP2;ratioP2;P2;SDS_P1;SDS_P2;PMS_P1;PMS_P2;Temp;Humidity;BMP_temperature;BMP_pressure;BME280_temperature;BME280_humidity;BME280_pressure;Samples;Min_cycle;Max_cycle;Signal;HPM_P1;HPM_P2
2023/03/26 00:00:04;;;;;;;8.95;2.13;;;;;;;12.61;100.00;99075.13;4897472;29;20078;-92
2023/03/26 00:02:30;;;;;;;25.23;3.38;;;;;;;13.41;100.00;99058.47;4897369;29;20398;-92
2023/03/26 00:04:55;;;;;;;26.23;2.50;;;;;;;26.00;100.00;99077.59;4897285;29;20027;-93
2023/03/26 00:07:21;;;;;;;24.77;2.72;;;;;;;17.48;100.00;99070.03;4897647;29;20475;-93
2023/03/26 00:09:47;;;;;;;14.38;1.75;;;;;;;16.56;100.00;99058.13;4897161;29;20025;-92
2023/03/26 00:12:13;;;;;;;15.77;1.70;;;;;;;16.88;74.75;99039.13;4898737;29;20160;-92
2023/03/26 00:14:39;;;;;;;13.82;2.40;;;;;;;16.72;65.12;99050.31;4897280;29;20132;-93
2023/03/26 00:17:05;;;;;;;8.82;2.08;;;;;;;16.60;60.80;99051.59;4898446;29;20494;-91
2023/03/26 00:19:31;;;;;;;22.52;2.10;;;;;;;16.84;61.78;99050.84;4898260;29;20036;-93
2023/03/26 00:21:56;;;;;;;17.23;2.08;;;;;;;16.72;64.41;99037.28;4912869;29;20024;-93
2023/03/26 00:24:28;;;;;;;30.27;2.70;;;;;;;16.89;78.61;99031.13;4896654;29;20055;-93
2023/03/26 00:26:53;;;;;;;15.15;2.70;;;;;;;16.66;70.44;99036.16;4896889;29;20036;-93
2023/03/26 00:29:19;;;;;;;21.30;2.75;;;;;;;16.69;68.20;99009.78;4896958;29;20028;-92
2023/03/26 00:31:44;;;;;;;10.60;2.20;;;;;;;16.62;60.38;99016.59;4898394;29;20288;-93
2023/03/26 00:34:10;;;;;;;18.92;2.80;;;;;;;17.03;63.80;99031.47;4897828;29;20028;-93
2023/03/26 00:36:36;;;;;;;16.60;1.90;;;;;;;16.61;60.64;99012.38;4897049;29;20056;-93
2023/03/26 00:39:04;;;;;;;13.57;1.80;;;;;;;15.68;60.32;99007.25;4912633;29;20060;-93
2023/03/26 00:41:29;;;;;;;14.98;2.60;;;;;;;15.79;64.98;99017.38;4896691;29;20029;-92
2023/03/26 00:43:57;;;;;;;12.05;1.80;;;;;;;16.69;62.83;99004.56;4896775;29;20120;-92
2023/03/26 00:46:24;;;;;;;14.02;1.40;;;;;;;16.38;67.33;98995.75;4897740;29;20037;-92
2023/03/26 00:48:49;;;;;;;9.18;2.05;;;;;;;16.11;65.68;99000.25;4897577;29;20028;-93
2023/03/26 00:51:16;;;;;;;9.80;1.15;;;;;;;16.34;64.80;98995.28;4898003;29;20033;-92
2023/03/26 00:53:43;;;;;;;6.55;1.40;;;;;;;16.34;62.08;99002.25;4897670;29;20029;-92
2023/03/26 00:56:09;;;;;;;11.07;1.60;;;;;;;15.47;77.33;98994.63;4896484;29;20025;-92
2023/03/26 00:58:35;;;;;;;6.55;1.42;;;;;;;15.95;62.46;98977.59;4897596;29;20025;-92
2023/03/26 01:01:05;;;;;;;9.63;2.25;;;;;;;16.34;61.02;98981.41;4896448;29;20407;-93
2023/03/26 01:03:35;;;;;;;5.70;1.27;;;;;;;16.00;58.84;98982.34;4896250;29;20028;-92
2023/03/26 01:06:11;;;;;;;11.13;1.50;;;;;;;15.81;58.91;98973.81;4897561;29;20036;-92
2023/03/26 01:08:48;;;;;;;9.40;1.40;;;;;;;15.94;59.02;98973.34;4911893;29;20032;-92
2023/03/26 01:11:22;;;;;;;9.32;1.20;;;;;;;16.34;59.18;98968.38;4896265;29;20032;-92
2023/03/26 01:14:06;;;;;;;12.35;1.40;;;;;;;16.61;56.43;98977.72;4896453;29;20681;-91
2023/03/26 01:17:11;;;;;;;5.40;1.00;;;;;;;16.44;65.40;98979.50;4911947;29;20096;-92
2023/03/26 01:19:43;;;;;;;4.32;0.75;;;;;;;16.46;71.26;98967.13;4913913;29;20084;-92
2023/03/26 01:22:11;;;;;;;6.05;1.20;;;;;;;16.18;64.77;98970.00;4913754;29;20483;-92
2023/03/26 01:24:37;;;;;;;8.88;1.45;;;;;;;15.99;65.88;98944.25;4895520;29;20552;-93
2023/03/26 01:27:08;;;;;;;5.10;1.10;;;;;;;15.79;61.26;98954.94;4896012;29;20484;-92
2023/03/26 01:29:39;;;;;;;5.57;0.93;;;;;;;15.92;58.42;98962.28;4897291;29;20037;-93
2023/03/26 01:32:12;;;;;;;6.65;1.17;;;;;;;15.47;59.73;98949.59;4897216;29;20055;-93
2023/03/26 01:34:48;;;;;;;5.80;0.98;;;;;;;15.72;62.08;98942.72;4895930;29;20050;-92
2023/03/26 01:37:27;;;;;;;1.90;0.52;;;;;;;15.05;62.41;98935.59;4896090;29;20028;-92
2023/03/26 01:40:05;;;;;;;3.13;1.05;;;;;;;15.62;61.79;98946.25;4896124;29;20119;-92
2023/03/26 01:42:56;;;;;;;5.70;0.98;;;;;;;16.11;58.53;98940.38;4896128;29;20091;-92
2023/03/26 01:45:27;;;;;;;2.58;0.70;;;;;;;15.82;56.46;98933.81;4897210;29;20029;-93
2023/03/26 01:47:53;;;;;;;6.50;0.60;;;;;;;15.74;59.91;98935.59;4897022;29;20064;-92
2023/03/26 01:50:19;;;;;;;3.20;0.40;;;;;;;14.89;57.50;98941.47;4898369;29;20447;-92
2023/03/26 01:52:44;;;;;;;4.93;0.82;;;;;;;15.24;57.71;98921.56;4900881;29;20067;-92
2023/03/26 01:55:11;;;;;;;2.75;0.60;;;;;;;15.59;56.70;98920.56;4899780;29;20127;-92
2023/03/26 01:57:36;;;;;;;15.65;1.70;;;;;;;15.69;56.35;98927.41;4899805;29;20060;-92
2023/03/26 02:00:24;;;;;;;2.92;0.68;;;;;;;16.06;54.78;98924.44;4899597;29;20068;-92
2023/03/26 02:02:53;;;;;;;2.65;0.80;;;;;;;16.54;55.04;98920.25;4900671;29;20021;-92
2023/03/26 02:05:31;;;;;;;8.00;0.93;;;;;;;16.86;53.13;98916.81;4899619;29;20029;-93
2023/03/26 02:08:08;;;;;;;2.85;0.63;;;;;;;17.00;52.29;98904.09;4899575;29;20036;-93
2023/03/26 02:10:45;;;;;;;15.15;1.38;;;;;;;17.00;53.59;98891.88;4900449;29;20028;-92
2023/03/26 02:13:12;;;;;;;3.05;1.02;;;;;;;16.13;56.03;98895.97;4900777;29;20032;-93
2023/03/26 02:15:38;;;;;;;4.88;0.50;;;;;;;16.23;55.33;98909.66;4899115;29;20395;-92
2023/03/26 02:18:04;;;;;;;3.45;0.57;;;;;;;15.60;61.75;98900.56;4899278;29;20048;-93
2023/03/26 02:20:29;;;;;;;3.47;0.45;;;;;;;15.78;57.57;98906.50;4900466;29;20492;-92
2023/03/26 02:22:56;;;;;;;3.17;0.80;;;;;;;16.01;56.75;98898.88;4900222;29;20033;-92
2023/03/26 02:25:22;;;;;;;3.63;0.73;;;;;;;15.95;55.67;98890.94;4898950;29;20487;-92
2023/03/26 02:27:50;;;;;;;11.93;1.10;;;;;;;15.80;59.14;98890.72;4899281;29;20097;-93
2023/03/26 02:30:18;;;;;;;5.50;0.73;;;;;;;15.71;62.45;98884.69;4899325;29;20084;-93
2023/03/26 02:32:43;;;;;;;1.33;0.47;;;;;;;15.89;58.16;98881.16;4898925;29;20395;-92
2023/03/26 02:35:11;;;;;;;5.05;0.70;;;;;;;16.17;60.13;98887.69;4898973;29;20119;-92
2023/03/26 02:37:37;;;;;;;6.45;0.88;;;;;;;16.04;59.45;98876.94;4900344;29;20063;-93
2023/03/26 02:40:07;;;;;;;5.22;0.82;;;;;;;16.38;57.02;98884.59;4900200;29;20029;-92
2023/03/26 02:42:34;;;;;;;3.53;0.85;;;;;;;16.07;59.33;98874.03;4899892;29;20031;-92
2023/03/26 02:45:00;;;;;;;2.92;0.60;;;;;;;15.79;59.06;98876.91;4898889;29;20479;-93
2023/03/26 02:47:25;;;;;;;7.28;1.08;;;;;;;15.56;56.44;98875.84;4899867;29;20028;-93
2023/03/26 02:49:50;;;;;;;3.28;0.57;;;;;;;15.74;55.99;98860.16;4900238;29;20052;-93
2023/03/26 02:52:17;;;;;;;1.40;0.38;;;;;;;15.78;54.93;98864.88;4898621;29;20024;-93
2023/03/26 02:54:42;;;;;;;414.63;98.28;;;;;;;15.94;54.52;98853.66;4899895;29;20120;-92
2023/03/26 02:57:08;;;;;;;1.15;0.20;;;;;;;16.09;54.15;98863.44;4898776;29;20116;-93
2023/03/26 02:59:33;;;;;;;1.05;0.28;;;;;;;16.18;53.95;98859.88;4899698;29;20056;-93
2023/03/26 03:01:59;;;;;;;1.67;0.35;;;;;;;16.24;53.26;98859.19;4898739;29;20036;-93
2023/03/26 03:04:24;;;;;;;5.40;0.50;;;;;;;16.30;53.36;98862.97;4899529;29;20089;-92
2023/03/26 03:06:56;;;;;;;3.40;0.43;;;;;;;15.98;53.14;98846.38;4899431;29;20389;-93
2023/03/26 03:09:22;;;;;;;1.98;0.60;;;;;;;16.15;53.46;98850.59;4899531;29;20035;-93
2023/03/26 03:11:47;;;;;;;2.03;0.50;;;;;;;16.06;53.59;98848.97;4898114;29;20033;-93
2023/03/26 03:14:13;;;;;;;2.15;0.50;;;;;;;16.24;53.33;98857.44;4899312;29;20456;-92
2023/03/26 03:16:38;;;;;;;0.45;0.20;;;;;;;16.19;53.61;98836.28;4899310;29;20025;-94
2023/03/26 03:19:04;;;;;;;0.70;0.28;;;;;;;16.36;53.56;98846.66;4898339;29;20592;-92
2023/03/26 03:21:30;;;;;;;2.08;0.40;;;;;;;16.16;55.91;98852.22;4898160;29;20025;-92
2023/03/26 03:23:56;;;;;;;5.35;0.77;;;;;;;16.23;53.75;98858.41;4899193;29;20048;-92
2023/03/26 03:26:26;;;;;;;1.30;0.40;;;;;;;16.34;53.61;98853.81;4898973;29;20054;-91
2023/03/26 03:28:54;;;;;;;1.30;0.28;;;;;;;16.27;53.51;98849.28;4913695;29;20028;-92
2023/03/26 03:31:20;;;;;;;0.85;0.40;;;;;;;16.23;53.23;98847.97;4897863;29;20033;-92
2023/03/26 03:33:45;;;;;;;2.58;0.50;;;;;;;16.31;53.29;98848.97;4897881;29;20476;-93
2023/03/26 03:36:13;;;;;;;3.70;0.60;;;;;;;16.53;52.93;98855.28;4898803;29;20032;-92
2023/03/26 03:38:41;;;;;;;3.78;0.57;;;;;;;16.46;52.30;98835.13;4897713;29;20028;-93
2023/03/26 03:41:07;;;;;;;2.25;0.65;;;;;;;16.39;53.10;98846.38;4897739;29;20052;-95
2023/03/26 03:43:33;;;;;;;0.95;0.50;;;;;;;16.08;54.36;98831.41;4897555;29;20052;-91
2023/03/26 03:45:59;;;;;;;1.88;0.45;;;;;;;16.18;54.44;98829.44;4897438;29;20483;-91
2023/03/26 03:48:26;;;;;;;2.42;0.52;;;;;;;16.14;54.15;98841.19;4897759;29;20443;-94
2023/03/26 03:50:55;;;;;;;3.95;0.55;;;;;;;16.42;53.56;98848.63;4897782;29;20395;-92
2023/03/26 03:53:24;;;;;;;5.88;0.63;;;;;;;16.22;53.42;98825.53;4913265;29;20067;-91
2023/03/26 03:55:52;;;;;;;2.22;0.30;;;;;;;16.44;52.77;98841.47;4897394;29;20436;-94
2023/03/26 03:58:23;;;;;;;1.17;0.45;;;;;;;16.49;52.52;98839.19;4898679;29;20024;-93
2023/03/26 04:00:51;;;;;;;0.50;0.28;;;;;;;16.43;53.07;98847.63;4913238;29;20025;-95
2023/03/26 04:03:18;;;;;;;3.80;0.57;;;;;;;16.33;52.47;98837.41;4898514;29;20027;-93
2023/03/26 04:05:48;;;;;;;1.63;0.40;;;;;;;16.10;53.45;98832.06;4897606;29;20036;-93
2023/03/26 04:08:15;;;;;;;0.82;0.28;;;;;;;16.25;53.21;98840.81;4898736;29;20053;-93
2023/03/26 04:10:42;;;;;;;1.42;0.30;;;;;;;16.18;53.24;98852.06;4898878;29;20056;-92
2023/03/26 04:13:08;;;;;;;3.17;0.50;;;;;;;16.15;53.24;98840.19;4896980;29;20131;-92
2023/03/26 04:15:34;;;;;;;3.10;0.40;;;;;;;16.26;53.05;98847.69;4897177;29;20135;-93
2023/03/26 04:18:00;;;;;;;4.60;0.60;;;;;;;16.27;54.53;98851.91;4897179;29;20475;-92
2023/03/26 04:20:25;;;;;;;0.75;0.25;;;;;;;16.12;54.17;98850.09;4897245;29;20071;-92
2023/03/26 04:22:51;;;;;;;1.55;0.43;;;;;;;16.11;54.76;98841.47;4898230;29;20484;-92
2023/03/26 04:25:17;;;;;;;7.10;0.47;;;;;;;16.11;54.42;98848.47;4898074;29;20119;-92
2023/03/26 04:27:43;;;;;;;1.55;0.40;;;;;;;16.13;54.20;98844.75;4912783;29;20025;-92
2023/03/26 04:30:14;;;;;;;3.30;0.50;;;;;;;16.40;53.63;98848.78;4896922;29;20025;-92
2023/03/26 04:32:41;;;;;;;0.77;0.25;;;;;;;16.29;53.97;98849.13;4896729;29;20033;-92
2023/03/26 04:35:12;;;;;;;3.78;0.40;;;;;;;16.23;53.10;98853.19;4896691;29;20098;-93
2023/03/26 04:37:39;;;;;;;3.08;0.40;;;;;;;16.22;53.11;98862.00;4897889;29;20032;-91
2023/03/26 04:40:18;;;;;;;3.30;1.23;;;;;;;16.42;52.45;98852.03;4896854;29;20084;-92
2023/03/26 04:42:46;;;;;;;1.90;0.40;;;;;;;16.16;53.69;98841.78;4897824;29;20029;-92
2023/03/26 04:45:21;;;;;;;1.25;0.40;;;;;;;16.60;52.82;98854.44;4897841;29;20036;-92
2023/03/26 04:47:47;;;;;;;0.95;0.50;;;;;;;16.41;52.65;98858.25;4896534;29;20032;-92
2023/03/26 04:50:13;;;;;;;1.80;1.17;;;;;;;16.50;52.68;98859.03;4896595;29;20056;-92
2023/03/26 04:52:39;;;;;;;2.95;0.68;;;;;;;16.44;52.95;98860.50;4896625;29;20032;-93
2023/03/26 04:55:15;;;;;;;3.40;0.82;;;;;;;16.57;52.82;98854.78;4897633;29;20033;-92
2023/03/26 04:57:45;;;;;;;5.70;1.33;;;;;;;16.67;52.44;98865.84;4897251;29;20028;-92
2023/03/26 05:00:17;;;;;;;6.93;1.38;;;;;;;16.63;52.58;98861.97;4897488;29;20056;-92
2023/03/26 05:02:44;;;;;;;8.38;0.85;;;;;;;16.46;52.45;98860.34;4896388;29;20124;-91
2023/03/26 05:05:10;;;;;;;4.05;1.00;;;;;;;16.60;52.35;98874.47;4895995;29;20033;-93
2023/03/26 05:07:35;;;;;;;2.90;1.55;;;;;;;16.45;52.75;98862.13;4911903;29;20025;-92
2023/03/26 05:10:04;;;;;;;0.88;0.80;;;;;;;16.43;52.77;98860.66;4896304;29;20021;-93
2023/03/26 05:12:29;;;;;;;2.30;0.98;;;;;;;16.53;54.33;98869.09;4896172;29;20464;-92
2023/03/26 05:14:55;;;;;;;3.70;1.20;;;;;;;16.48;53.64;98879.22;4897756;29;20116;-92
2023/03/26 05:17:23;;;;;;;2.10;0.80;;;;;;;16.70;53.08;98867.28;4896944;29;20029;-91
2023/03/26 05:19:48;;;;;;;1.70;0.90;;;;;;;16.56;52.71;98868.81;4896087;29;20028;-92
2023/03/26 05:22:13;;;;;;;4.45;0.90;;;;;;;16.58;52.21;98885.09;4895951;29;20012;-91
2023/03/26 05:24:39;;;;;;;2.72;1.17;;;;;;;16.59;51.97;98872.88;4895140;29;20496;-92
2023/03/26 05:27:05;;;;;;;0.77;0.60;;;;;;;16.47;52.08;98869.78;4896163;29;20036;-92
2023/03/26 05:29:30;;;;;;;4.68;1.02;;;;;;;16.46;51.67;98873.38;4911613;29;20038;-92
2023/03/26 05:31:56;;;;;;;2.72;1.10;;;;;;;16.26;52.25;98872.88;4897025;29;20032;-92
2023/03/26 05:34:25;;;;;;;1.75;0.90;;;;;;;16.30;52.66;98889.81;4897015;29;20036;-92
2023/03/26 05:36:51;;;;;;;1.25;1.00;;;;;;;16.43;52.04;98891.91;4911529;29;20052;-93
2023/03/26 05:39:16;;;;;;;1.95;1.10;;;;;;;16.45;52.12;98892.56;4896904;29;20028;-93
2023/03/26 05:41:42;;;;;;;2.65;0.82;;;;;;;16.53;52.33;98882.13;4897030;29;20039;-92
2023/03/26 05:44:07;;;;;;;2.33;1.10;;;;;;;16.56;52.21;98897.44;4895620;29;20036;-92
2023/03/26 05:46:33;;;;;;;1.40;0.90;;;;;;;16.29;52.35;98882.97;4911702;29;20510;-92
2023/03/26 05:48:58;;;;;;;2.47;0.93;;;;;;;16.41;52.28;98891.25;4897026;29;20039;-92
2023/03/26 05:51:23;;;;;;;2.50;1.00;;;;;;;16.43;52.10;98892.72;4911519;29;20035;-92
2023/03/26 05:53:49;;;;;;;5.78;1.02;;;;;;;16.41;52.00;98888.66;4896863;29;20486;-92
2023/03/26 05:56:14;;;;;;;2.83;1.00;;;;;;;16.39;52.22;98899.25;4895781;29;20115;-92
2023/03/26 05:58:40;;;;;;;2.33;0.98;;;;;;;16.35;52.18;98886.72;4896723;29;20379;-92
2023/03/26 06:01:15;;;;;;;2.03;0.80;;;;;;;16.71;52.13;98913.22;4895658;29;20084;-92
2023/03/26 06:03:43;;;;;;;2.53;0.60;;;;;;;16.59;52.30;98899.72;4911216;29;20243;-92
2023/03/26 06:06:15;;;;;;;5.93;0.70;;;;;;;16.74;51.46;98912.09;4895661;29;20024;-92
2023/03/26 06:08:47;;;;;;;3.13;0.65;;;;;;;16.54;51.79;98902.00;4895617;29;20025;-92
2023/03/26 06:11:14;;;;;;;0.60;0.50;;;;;;;16.58;51.70;98918.09;4895513;29;20475;-90
2023/03/26 06:13:40;;;;;;;0.28;0.28;;;;;;;16.54;52.39;98925.44;4895521;29;20039;-92
2023/03/26 06:16:06;;;;;;;0.98;0.40;;;;;;;16.42;52.64;98922.34;4895429;29;20049;-92
2023/03/26 06:18:32;;;;;;;1.65;0.63;;;;;;;16.37;51.87;98934.25;4895914;29;20369;-92
2023/03/26 06:20:58;;;;;;;1.85;0.47;;;;;;;16.30;52.33;98925.44;4896944;29;20502;-92
2023/03/26 06:23:23;;;;;;;1.45;0.35;;;;;;;16.40;52.75;98942.53;4895523;29;20021;-92
2023/03/26 06:25:48;;;;;;;1.38;0.35;;;;;;;16.58;51.83;98947.59;4895403;29;20557;-92
2023/03/26 06:28:14;;;;;;;0.85;0.35;;;;;;;16.58;51.92;98950.19;4911308;29;20032;-92
2023/03/26 06:30:40;;;;;;;0.70;0.30;;;;;;;16.41;52.51;98948.53;4911147;29;20025;-92
2023/03/26 06:33:05;;;;;;;0.90;0.43;;;;;;;16.34;52.29;98952.75;4895501;29;20108;-92
2023/03/26 06:35:31;;;;;;;1.52;0.20;;;;;;;16.44;51.97;98953.44;4895350;29;20127;-92
2023/03/26 06:37:57;;;;;;;1.20;0.50;;;;;;;16.53;52.01;98952.44;4898610;29;20499;-92
2023/03/26 06:40:23;;;;;;;3.00;0.60;;;;;;;16.42;51.99;98971.81;4898782;29;20086;-92
2023/03/26 06:42:49;;;;;;;0.65;0.35;;;;;;;16.39;51.99;98966.94;4898874;29;20029;-92
2023/03/26 06:45:14;;;;;;;3.13;0.75;;;;;;;16.45;52.16;98961.09;4898457;29;20036;-92
2023/03/26 06:47:40;;;;;;;3.05;0.88;;;;;;;16.37;52.43;98962.88;4898573;29;20028;-92
2023/03/26 06:50:06;;;;;;;3.30;0.50;;;;;;;16.51;52.20;98964.84;4898869;29;20092;-92
2023/03/26 06:52:32;;;;;;;1.60;0.40;;;;;;;16.56;51.96;98983.41;4899830;29;20025;-91
2023/03/26 06:54:57;;;;;;;3.72;0.50;;;;;;;16.30;51.82;98967.09;4898455;29;20036;-91
2023/03/26 06:57:22;;;;;;;0.30;0.20;;;;;;;16.43;52.07;98976.06;4898274;29;20036;-92
2023/03/26 06:59:48;;;;;;;0.20;0.17;;;;;;;10.52;72.66;98989.25;4898659;29;20116;-92
2023/03/26 07:02:13;;;;;;;2.15;0.40;;;;;;;8.11;100.00;99009.88;4899716;29;20028;-92
2023/03/26 07:04:39;;;;;;;1.80;0.32;;;;;;;7.50;100.00;99009.75;4914090;29;20028;-92
2023/03/26 07:07:05;;;;;;;0.60;0.30;;;;;;;7.57;100.00;99011.00;4898355;29;20060;-92
2023/03/26 07:09:30;;;;;;;0.30;0.20;;;;;;;7.61;100.00;99015.00;4899507;29;20033;-92
2023/03/26 07:11:56;;;;;;;1.50;0.30;;;;;;;7.48;100.00;99001.34;4898288;29;20082;-92
2023/03/26 07:14:23;;;;;;;1.83;0.30;;;;;;;7.64;100.00;99011.41;4898300;29;20546;-92
2023/03/26 07:16:50;;;;;;;0.93;0.40;;;;;;;7.72;100.00;99030.50;4898200;29;20028;-92
2023/03/26 07:19:15;;;;;;;3.30;0.40;;;;;;;7.79;100.00;99022.38;4898196;29;20116;-92
2023/03/26 07:21:41;;;;;;;1.90;0.50;;;;;;;7.75;100.00;99023.50;4898036;29;20505;-92
2023/03/26 07:24:09;;;;;;;6.25;0.80;;;;;;;7.96;100.00;99034.88;4898147;29;20432;-92
2023/03/26 07:26:57;;;;;;;1.05;0.47;;;;;;;8.22;100.00;99039.94;4898352;29;20503;-93
2023/03/26 07:29:41;;;;;;;1.42;0.40;;;;;;;8.17;100.00;99036.88;4913627;29;20595;-92
2023/03/26 07:32:18;;;;;;;2.33;0.50;;;;;;;8.33;100.00;99043.41;4899035;29;20031;-92
2023/03/26 07:34:59;;;;;;;1.27;0.47;;;;;;;8.66;100.00;99061.75;4913167;29;20032;-91
2023/03/26 07:37:35;;;;;;;1.63;0.88;;;;;;;8.76;100.00;99067.84;4899022;29;20024;-92
2023/03/26 07:40:18;;;;;;;2.55;1.10;;;;;;;8.75;100.00;99061.91;4897709;29;20032;-92
2023/03/26 07:43:02;;;;;;;2.85;1.00;;;;;;;9.03;100.00;99062.47;4898846;29;20506;-92
2023/03/26 07:45:38;;;;;;;3.63;1.00;;;;;;;9.08;100.00;99062.94;4898501;29;20076;-92
2023/03/26 07:48:11;;;;;;;2.50;1.40;;;;;;;9.20;100.00;99071.53;4896826;29;20029;-92
2023/03/26 07:50:37;;;;;;;1.42;1.00;;;;;;;9.33;100.00;99072.25;4898930;29;20024;-91
2023/03/26 07:53:03;;;;;;;3.92;1.20;;;;;;;9.61;100.00;99080.50;4898880;29;20455;-91
2023/03/26 07:55:28;;;;;;;2.10;0.98;;;;;;;9.77;100.00;99091.28;4897349;29;20483;-92
2023/03/26 07:58:03;;;;;;;1.77;1.10;;;;;;;9.65;100.00;99081.91;4898481;29;20028;-92
2023/03/26 08:00:39;;;;;;;2.47;1.13;;;;;;;10.17;100.00;99087.41;4897371;29;20544;-92
2023/03/26 08:03:23;;;;;;;2.22;0.82;;;;;;;10.43;100.00;99095.72;4898469;29;20036;-91
2023/03/26 08:06:22;;;;;;;1.67;1.00;;;;;;;10.60;100.00;99095.22;4897106;29;20555;-92
2023/03/26 08:08:47;;;;;;;1.23;0.52;;;;;;;10.70;100.00;99108.22;4898081;29;20045;-92
2023/03/26 08:11:31;;;;;;;0.82;0.50;;;;;;;10.56;100.00;99124.81;4897240;29;20080;-93
2023/03/26 08:14:05;;;;;;;2.03;0.30;;;;;;;10.90;100.00;99111.81;4897012;29;20415;-92
2023/03/26 08:16:44;;;;;;;0.10;0.10;;;;;;;10.45;100.00;99125.63;4898328;29;20476;-92
2023/03/26 08:19:19;;;;;;;0.73;0.30;;;;;;;10.30;100.00;99133.75;4912884;29;20017;-93
2023/03/26 08:21:53;;;;;;;0.20;0.20;;;;;;;9.78;100.00;99134.16;4898186;29;20090;-92
2023/03/26 08:24:31;;;;;;;1.05;0.20;;;;;;;9.73;100.00;99133.69;4912518;29;20036;-91
2023/03/26 08:27:12;;;;;;;1.13;0.20;;;;;;;9.99;100.00;99138.63;4896820;29;20039;-92
2023/03/26 08:30:01;;;;;;;1.38;0.47;;;;;;;10.18;100.00;99148.34;4898308;29;20475;-92
2023/03/26 08:32:26;;;;;;;0.47;0.40;;;;;;;10.68;100.00;99149.63;4897906;29;20056;-93
2023/03/26 08:34:52;;;;;;;0.75;0.60;;;;;;;14.21;97.09;99154.03;4895784;29;20075;-93
2023/03/26 08:37:18;;;;;;;0.40;0.40;;;;;;;13.08;81.17;99155.56;4895774;29;20036;-93
2023/03/26 08:39:43;;;;;;;1.17;0.80;;;;;;;13.43;92.51;99159.41;4911777;29;20028;-92
2023/03/26 08:42:40;;;;;;;0.70;0.70;;;;;;;16.87;82.88;99159.97;4895902;29;20032;-92
2023/03/26 08:45:50;;;;;;;0.65;0.45;;;;;;;16.29;72.67;99184.16;4895727;29;20076;-93
2023/03/26 08:48:24;;;;;;;0.63;0.40;;;;;;;15.27;77.47;99196.78;4904163;29;20108;-93
2023/03/26 08:51:00;;;;;;;456.25;108.70;;;;;;;14.45;84.34;99206.25;4895720;29;20031;-93
2023/03/26 08:53:50;;;;;;;0.40;0.30;;;;;;;13.77;90.94;99213.41;4895909;29;20506;-92
2023/03/26 08:56:37;;;;;;;0.25;0.25;;;;;;;13.10;92.23;99202.06;4895807;29;20118;-92
2023/03/26 08:59:27;;;;;;;1.17;0.10;;;;;;;12.19;91.51;99225.31;4896712;29;20036;-92
2023/03/26 09:02:20;;;;;;;0.05;0.05;;;;;;;12.22;98.10;99230.25;4895680;29;20404;-93
2023/03/26 09:05:08;;;;;;;0.20;0.10;;;;;;;12.29;92.04;99231.38;4895711;29;20036;-92
2023/03/26 09:07:45;;;;;;;0.73;0.30;;;;;;;11.98;94.65;99241.69;4896611;29;20029;-93
2023/03/26 09:10:26;;;;;;;0.82;0.10;;;;;;;11.83;94.39;99248.09;4895361;29;20024;-92
2023/03/26 09:12:52;;;;;;;0.63;0.25;;;;;;;11.63;87.09;99248.88;4895398;29;20036;-93
2023/03/26 09:15:49;;;;;;;0.82;0.10;;;;;;;11.56;94.08;99253.75;4895551;29;20564;-92
2023/03/26 09:18:43;;;;;;;0.38;0.10;;;;;;;11.26;100.00;99262.16;4895450;29;20032;-93
2023/03/26 09:21:26;;;;;;;0.88;0.10;;;;;;;11.17;100.00;99263.72;4895151;29;20028;-92
2023/03/26 09:24:10;;;;;;;0.10;0.10;;;;;;;11.48;94.40;99276.75;4896424;29;20032;-92
2023/03/26 09:26:45;;;;;;;0.00;0.00;;;;;;;11.51;93.35;99284.25;4895179;29;20123;-93
2023/03/26 09:29:35;;;;;;;0.10;0.10;;;;;;;12.30;96.46;99278.78;4895244;29;20032;-92
2023/03/26 09:32:38;;;;;;;0.57;0.05;;;;;;;12.30;86.79;99286.53;4895260;29;20369;-93
2023/03/26 09:35:12;;;;;;;0.35;0.00;;;;;;;12.23;85.88;99296.56;4856837;29;1192734;-92
2023/03/26 09:37:54;;;;;;;2.85;0.20;;;;;;;12.32;85.50;99295.81;4895920;29;20052;-92
2023/03/26 09:40:23;;;;;;;;;;;;;;;13.06;79.10;99302.53;4897419;29;20127;-92
2023/03/26 09:42:52;;;;;;;0.10;0.10;;;;;;;13.41;84.72;99316.81;4896938;29;19940;-93
2023/03/26 09:45:48;;;;;;;0.00;0.00;;;;;;;13.39;75.07;99319.56;4896953;29;20063;-95
2023/03/26 09:48:28;;;;;;;1.48;0.10;;;;;;;13.07;77.82;99323.13;4896959;29;20069;-92
2023/03/26 09:51:20;;;;;;;0.60;0.10;;;;;;;12.83;83.92;99327.81;4895968;29;20184;-94
2023/03/26 09:54:18;;;;;;;0.63;0.17;;;;;;;12.29;85.46;99334.03;4898270;29;20460;-94
2023/03/26 09:57:10;;;;;;;0.10;0.10;;;;;;;12.17;83.40;99341.88;4899205;29;20060;-94
2023/03/26 09:59:48;;;;;;;0.20;0.17;;;;;;;12.45;86.62;99349.13;4896051;29;20024;-94
2023/03/26 10:02:29;;;;;;;1.00;0.10;;;;;;;12.17;84.31;99359.97;4895778;29;20031;-94
2023/03/26 10:05:16;;;;;;;0.45;0.20;;;;;;;12.76;87.55;99365.53;4895782;29;20107;-94
2023/03/26 10:08:03;;;;;;;1.90;0.30;;;;;;;13.16;73.58;99350.00;4895905;29;20039;-94
2023/03/26 10:11:03;;;;;;;0.10;0.10;;;;;;;13.13;76.63;99373.59;4895751;29;20029;-92
2023/03/26 10:13:36;;;;;;;2.83;0.10;;;;;;;12.72;75.94;99372.72;4899459;29;20487;-91
2023/03/26 10:16:17;;;;;;;0.28;0.10;;;;;;;12.57;80.72;99390.34;4900656;29;20037;-95
2023/03/26 10:18:52;;;;;;;0.30;0.20;;;;;;;12.27;83.16;99391.09;4901198;29;20522;-93
2023/03/26 10:21:36;;;;;;;2.63;0.32;;;;;;;12.10;78.83;99401.97;4899689;29;20025;-95
2023/03/26 10:24:26;;;;;;;1.38;0.50;;;;;;;12.61;83.45;99385.75;4899493;29;20036;-93
2023/03/26 10:27:06;;;;;;;0.47;0.10;;;;;;;12.18;80.23;99417.69;4899696;29;20035;-94
2023/03/26 10:30:06;;;;;;;0.10;0.10;;;;;;;12.66;86.29;99419.84;4899536;29;20029;-93
2023/03/26 10:32:44;;;;;;;1.02;0.30;;;;;;;12.75;77.04;99424.25;4899441;29;20076;-92
2023/03/26 10:35:27;;;;;;;0.90;0.20;;;;;;;11.95;79.28;99422.94;4899608;29;20563;-92
2023/03/26 10:38:30;;;;;;;0.57;0.20;;;;;;;12.05;82.45;99435.16;4899445;29;20067;-93
2023/03/26 10:41:14;;;;;;;0.50;0.30;;;;;;;11.24;83.30;99443.09;4899371;29;20076;-93
2023/03/26 10:44:07;;;;;;;1.27;0.38;;;;;;;11.25;85.50;99452.47;4899905;29;20047;-92
2023/03/26 10:46:57;;;;;;;0.73;0.30;;;;;;;11.41;87.03;99465.06;4900009;29;20040;-94
2023/03/26 10:49:25;;;;;;;0.70;0.30;;;;;;;11.50;89.10;99471.28;4899291;29;20444;-93
2023/03/26 10:51:58;;;;;;;0.60;0.25;;;;;;;11.75;94.97;99462.44;4899189;29;20029;-93
2023/03/26 10:54:53;;;;;;;3.17;0.68;;;;;;;12.19;89.43;99477.09;4898936;29;20480;-93
2023/03/26 10:57:28;;;;;;;0.82;0.50;;;;;;;12.51;85.85;99489.22;4899165;29;20539;-92
2023/03/26 11:00:04;;;;;;;3.63;0.77;;;;;;;12.45;83.18;99483.69;4899303;29;20029;-93
2023/03/26 11:02:42;;;;;;;1.73;0.90;;;;;;;12.70;82.27;99487.69;4899035;29;20029;-94
2023/03/26 11:05:26;;;;;;;1.00;0.85;;;;;;;13.83;84.64;99506.75;4914531;29;20032;-93
2023/03/26 11:08:05;;;;;;;2.15;0.73;;;;;;;13.61;83.77;99501.78;4899094;29;20033;-93
2023/03/26 11:10:45;;;;;;;1.92;0.82;;;;;;;13.28;78.10;99525.19;4899916;29;20602;-92
2023/03/26 11:13:49;;;;;;;0.73;0.63;;;;;;;13.32;85.81;99514.59;4898966;29;20029;-93
2023/03/26 11:16:34;;;;;;;0.82;0.77;;;;;;;14.36;74.89;99531.56;4899036;29;20037;-94
2023/03/26 11:19:23;;;;;;;0.80;0.70;;;;;;;17.50;58.44;99482.84;4898838;29;20035;-95
2023/03/26 11:22:00;;;;;;;2.60;0.80;;;;;;;17.23;64.54;99537.81;4898804;29;20060;-92
2023/03/26 11:24:39;;;;;;;1.95;0.80;;;;;;;15.58;66.14;99531.88;4897985;29;20059;-94
2023/03/26 11:27:21;;;;;;;0.70;0.45;;;;;;;14.04;67.72;99534.38;4898421;29;20033;-94
2023/03/26 11:30:05;;;;;;;1.08;0.70;;;;;;;13.50;76.17;99554.50;4898248;29;20042;-94
2023/03/26 11:32:42;;;;;;;0.75;0.70;;;;;;;13.22;76.35;99541.22;4898365;29;20037;-93
2023/03/26 11:35:17;;;;;;;3.13;1.20;;;;;;;12.34;72.24;99550.06;4914079;29;20096;-93
2023/03/26 11:37:49;;;;;;;4.13;1.70;;;;;;;12.14;73.72;99559.41;4898643;29;20032;-93
2023/03/26 11:40:24;;;;;;;3.83;2.00;;;;;;;11.77;81.90;99576.88;4898298;29;20033;-93
2023/03/26 11:42:55;;;;;;;8.05;2.70;;;;;;;11.08;79.71;99595.78;4914255;29;20032;-93
2023/03/26 11:45:28;;;;;;;7.70;3.58;;;;;;;10.88;83.22;99601.59;4899182;29;20031;-94
2023/03/26 11:48:11;;;;;;;8.02;4.38;;;;;;;10.87;84.22;99598.16;4914531;29;20060;-93
2023/03/26 11:50:46;;;;;;;8.52;4.63;;;;;;;10.79;87.08;99581.59;4898280;29;20081;-94
2023/03/26 11:53:18;;;;;;;9.77;4.63;;;;;;;11.00;86.76;99605.84;4913901;29;20244;-93
2023/03/26 11:55:50;;;;;;;12.90;5.32;;;;;;;11.19;85.08;99609.66;4898164;29;20028;-94